Time;durP1;ratioP1;P1;durP2;ratioP2;P2;SDS_P1;SDS_P2;PMS_P1;PMS_P2;Temp;Humidity;BMP_temperature;BMP_pressure;BME280_temperature;BME280_humidity;BME280_pressure;Samples;Min_cycle;Max_cycle;Signal;HPM_P1;HPM_P2
2021/10/04 00:00:30;;;;;;;8.27;4.50;;;11.90;99.90;;;;;;4830328;29;20128;-89
2021/10/04 00:02:56;;;;;;;10.68;4.70;;;11.70;99.90;;;;;;4857682;29;20121;-90
2021/10/04 00:05:22;;;;;;;10.63;4.82;;;11.80;99.90;;;;;;4845452;29;20076;-90
2021/10/04 00:07:48;;;;;;;11.60;4.20;;;11.80;99.90;;;;;;4845891;29;20494;-90
2021/10/04 00:10:18;;;;;;;13.57;4.32;;;11.70;99.90;;;;;;4860620;29;20509;-90
2021/10/04 00:12:47;;;;;;;11.82;4.13;;;11.80;99.90;;;;;;4844769;29;20056;-90
2021/10/04 00:15:24;;;;;;;12.23;4.72;;;11.80;99.90;;;;;;4845415;29;20045;-90
2021/10/04 00:17:51;;;;;;;8.88;3.67;;;11.80;99.90;;;;;;4845148;29;20053;-89
2021/10/04 00:20:18;;;;;;;7.95;3.95;;;11.80;99.90;;;;;;4845257;29;20387;-90
2021/10/04 00:22:45;;;;;;;11.10;4.10;;;11.30;99.90;;;;;;4861595;29;20133;-90
2021/10/04 00:25:11;;;;;;;12.52;4.07;;;11.80;99.90;;;;;;4879871;29;20109;-89
2021/10/04 00:27:37;;;;;;;9.55;3.95;;;11.80;99.90;;;;;;4893657;29;20109;-90
2021/10/04 00:30:08;;;;;;;8.70;3.53;;;11.80;99.90;;;;;;4862636;29;20049;-90
2021/10/04 00:32:35;;;;;;;12.75;3.80;;;11.80;99.90;;;;;;4861049;29;20517;-91
2021/10/04 00:35:02;;;;;;;8.93;4.10;;;11.80;99.90;;;;;;4858233;29;20044;-91
2021/10/04 00:37:28;;;;;;;10.43;3.85;;;11.70;99.90;;;;;;4870578;29;20069;-90
2021/10/04 00:39:54;;;;;;;9.95;3.97;;;11.70;99.90;;;;;;4848417;29;20549;-91
2021/10/04 00:42:26;;;;;;;9.50;3.53;;;11.70;99.90;;;;;;4844564;29;20076;-91
2021/10/04 00:45:30;;;;;;;9.15;3.58;;;11.70;99.90;;;;;;4873094;29;20478;-90
2021/10/04 00:47:57;;;;;;;10.40;3.30;;;11.20;99.90;;;;;;4847001;29;20041;-90
2021/10/04 00:50:27;;;;;;;12.88;3.72;;;11.70;99.90;;;;;;4857882;29;20049;-84
2021/10/04 00:52:53;;;;;;;14.60;3.55;;;11.70;99.90;;;;;;4844502;29;20132;-90
2021/10/04 00:55:23;;;;;;;10.63;3.90;;;12.50;99.90;;;;;;4857628;29;20169;-90
2021/10/04 00:57:58;;;;;;;10.15;3.65;;;11.70;99.90;;;;;;4850309;29;20133;-90
2021/10/04 01:00:30;;;;;;;9.98;3.40;;;11.70;99.90;;;;;;4851334;29;20053;-90
2021/10/04 01:02:59;;;;;;;11.13;3.38;;;11.70;99.90;;;;;;4857369;29;20073;-90
2021/10/04 01:05:27;;;;;;;10.00;3.22;;;11.70;99.90;;;;;;4859815;29;20502;-89
2021/10/04 01:07:53;;;;;;;7.93;3.00;;;11.70;99.90;;;;;;4873259;29;20045;-90
2021/10/04 01:10:19;;;;;;;9.82;2.97;;;11.90;99.90;;;;;;4845004;29;20463;-90
2021/10/04 01:12:48;;;;;;;7.03;2.92;;;11.70;99.90;;;;;;4862792;29;20128;-91
2021/10/04 01:15:18;;;;;;;6.93;3.17;;;12.20;99.90;;;;;;4839085;29;20131;-91
2021/10/04 01:17:44;;;;;;;11.57;2.95;;;11.80;99.90;;;;;;4862513;29;20074;-91
2021/10/04 01:20:30;;;;;;;10.32;3.50;;;11.70;99.90;;;;;;4855412;29;20041;-90
2021/10/04 01:23:02;;;;;;;9.55;2.90;;;11.60;99.90;;;;;;4846601;29;20049;-91
2021/10/04 01:25:29;;;;;;;15.40;3.50;;;12.50;99.90;;;;;;4862874;29;20044;-91
2021/10/04 01:27:56;;;;;;;8.77;3.08;;;11.70;99.90;;;;;;4860938;29;20056;-91
2021/10/04 01:30:25;;;;;;;10.15;3.20;;;11.70;99.90;;;;;;4844383;29;20077;-90
2021/10/04 01:32:52;;;;;;;9.70;3.50;;;11.80;99.90;;;;;;4857622;29;20398;-91
2021/10/04 01:35:39;;;;;;;9.68;3.30;;;12.30;99.90;;;;;;4862847;29;20049;-91
2021/10/04 01:38:11;;;;;;;6.68;3.05;;;11.70;99.90;;;;;;4862810;29;20099;-91
2021/10/04 01:40:39;;;;;;;11.93;3.17;;;12.10;99.90;;;;;;4859914;29;20498;-91
2021/10/04 01:43:11;;;;;;;8.10;3.08;;;11.70;99.90;;;;;;4844093;29;20089;-91
2021/10/04 01:45:37;;;;;;;8.52;3.03;;;11.70;99.90;;;;;;4855469;29;20506;-91
2021/10/04 01:48:13;;;;;;;7.35;2.95;;;11.30;99.90;;;;;;4859397;29;20049;-90
2021/10/04 01:50:39;;;;;;;7.18;2.92;;;11.80;99.90;;;;;;4828548;29;20046;-90
2021/10/04 01:53:10;;;;;;;10.45;3.20;;;12.40;99.90;;;;;;4861092;29;20526;-91
2021/10/04 01:55:39;;;;;;;10.25;3.67;;;11.70;99.90;;;;;;4848962;29;20041;-91
2021/10/04 01:58:08;;;;;;;17.67;3.35;;;11.70;99.90;;;;;;4858431;29;20491;-89
2021/10/04 02:00:47;;;;;;;8.00;3.53;;;11.50;99.90;;;;;;4847066;29;20439;-91
2021/10/04 02:03:16;;;;;;;10.68;3.30;;;11.70;99.90;;;;;;4870221;29;20116;-90
2021/10/04 02:05:42;;;;;;;8.70;3.20;;;11.70;99.90;;;;;;4821368;29;20052;-90
2021/10/04 02:08:08;;;;;;;8.82;3.03;;;12.60;99.90;;;;;;4862530;29;20399;-91
2021/10/04 02:10:37;;;;;;;17.08;3.80;;;11.70;99.90;;;;;;4831968;29;20042;-91
2021/10/04 02:13:06;;;;;;;9.63;2.90;;;11.70;99.90;;;;;;4862390;29;20042;-83
2021/10/04 02:15:33;;;;;;;11.07;2.92;;;11.10;99.90;;;;;;4863771;29;20049;-91
2021/10/04 02:18:02;;;;;;;11.02;2.92;;;12.00;99.90;;;;;;4846953;29;20486;-91
2021/10/04 02:20:31;;;;;;;7.95;3.10;;;11.70;99.90;;;;;;4862074;29;20124;-83
2021/10/04 02:23:05;;;;;;;8.57;2.90;;;11.60;99.90;;;;;;4846607;29;20390;-83
2021/10/04 02:25:35;;;;;;;8.60;2.80;;;11.70;99.90;;;;;;4872741;29;20081;-83
2021/10/04 02:28:05;;;;;;;6.28;2.63;;;11.60;99.90;;;;;;4849641;29;20049;-83
2021/10/04 02:30:33;;;;;;;9.05;2.85;;;11.60;99.90;;;;;;4862295;29;20194;-83
2021/10/04 02:33:04;;;;;;;11.63;3.28;;;11.60;99.90;;;;;;4846960;29;20053;-91
2021/10/04 02:35:33;;;;;;;8.98;3.17;;;11.50;99.90;;;;;;4859387;29;20141;-90
2021/10/04 02:38:03;;;;;;;7.38;3.00;;;11.70;99.90;;;;;;4847213;29;20037;-90
2021/10/04 02:40:29;;;;;;;12.27;3.15;;;11.60;99.90;;;;;;4847384;29;20047;-90
2021/10/04 02:42:57;;;;;;;6.78;3.17;;;11.60;99.90;;;;;;4846974;29;20145;-90
2021/10/04 02:45:24;;;;;;;9.27;2.72;;;11.60;99.90;;;;;;4849291;29;20117;-90
2021/10/04 02:47:56;;;;;;;9.35;3.03;;;11.60;99.90;;;;;;4858045;29;20109;-91
2021/10/04 02:50:24;;;;;;;8.68;2.85;;;11.90;99.90;;;;;;4856546;29;20132;-91
2021/10/04 02:52:50;;;;;;;8.77;3.58;;;11.60;99.90;;;;;;4871986;29;20128;-91
2021/10/04 02:55:16;;;;;;;9.32;2.90;;;11.60;99.90;;;;;;4849121;29;20132;-90
2021/10/04 02:57:42;;;;;;;11.63;2.70;;;11.60;99.90;;;;;;4849392;29;20067;-91
2021/10/04 03:00:12;;;;;;;7.65;2.95;;;11.60;99.90;;;;;;4847826;29;20046;-91
2021/10/04 03:02:38;;;;;;;10.32;2.90;;;11.60;99.90;;;;;;4832407;29;20089;-91
2021/10/04 03:05:04;;;;;;;9.95;2.85;;;11.60;99.90;;;;;;4844242;29;20064;-91
2021/10/04 03:07:31;;;;;;;6.75;2.50;;;11.60;99.90;;;;;;4846354;29;20464;-91
2021/10/04 03:09:56;;;;;;;10.25;2.65;;;11.60;99.90;;;;;;4854766;29;20053;-91
2021/10/04 03:12:22;;;;;;;6.50;2.80;;;11.60;99.90;;;;;;4863752;29;20037;-91
2021/10/04 03:14:48;;;;;;;9.90;2.90;;;11.60;99.90;;;;;;4854807;29;20064;-91
2021/10/04 03:17:14;;;;;;;9.60;2.95;;;11.60;99.90;;;;;;4846116;29;20091;-91
2021/10/04 03:19:43;;;;;;;7.85;2.65;;;12.10;99.90;;;;;;4861472;29;20490;-91
2021/10/04 03:22:09;;;;;;;7.35;2.58;;;11.60;99.90;;;;;;4846247;29;20046;-91
2021/10/04 03:24:41;;;;;;;9.38;3.10;;;12.60;99.90;;;;;;4846094;29;20380;-91
2021/10/04 03:27:06;;;;;;;6.55;2.83;;;11.30;99.90;;;;;;4846029;29;20048;-91
2021/10/04 03:29:32;;;;;;;8.38;2.58;;;11.60;99.90;;;;;;4845438;29;20041;-83
2021/10/04 03:31:58;;;;;;;9.65;2.50;;;11.60;99.90;;;;;;4845749;29;20085;-83
2021/10/04 03:34:24;;;;;;;8.68;2.60;;;11.50;99.90;;;;;;4860681;29;20418;-83
2021/10/04 03:36:50;;;;;;;8.20;2.50;;;12.00;99.90;;;;;;4830143;29;20052;-84
2021/10/04 03:39:16;;;;;;;9.43;2.67;;;11.40;99.90;;;;;;4862041;29;20049;-84
2021/10/04 03:41:43;;;;;;;8.35;3.00;;;11.10;99.90;;;;;;4845083;29;20068;-83
2021/10/04 03:44:09;;;;;;;11.07;2.90;;;11.50;99.90;;;;;;4860546;29;20521;-83
2021/10/04 03:46:39;;;;;;;11.13;2.72;;;11.50;99.90;;;;;;4850911;29;20155;-91
2021/10/04 03:49:05;;;;;;;7.65;2.33;;;11.50;99.90;;;;;;4837972;29;20129;-84
2021/10/04 03:51:31;;;;;;;11.27;3.00;;;11.50;99.90;;;;;;4860563;29;20120;-83
2021/10/04 03:53:57;;;;;;;7.80;2.58;;;11.50;99.90;;;;;;4845155;29;20375;-84
2021/10/04 03:56:24;;;;;;;9.07;2.30;;;11.50;99.90;;;;;;4845053;29;20041;-84
2021/10/04 03:58:50;;;;;;;8.63;2.60;;;11.60;99.90;;;;;;4860792;29;20045;-91
2021/10/04 04:01:16;;;;;;;8.57;2.08;;;11.50;99.90;;;;;;4845244;29;20042;-90
2021/10/04 04:03:41;;;;;;;9.82;2.42;;;11.50;99.90;;;;;;4845159;29;20034;-84
2021/10/04 04:06:07;;;;;;;12.73;2.95;;;11.50;99.90;;;;;;4844803;29;20120;-83
2021/10/04 04:08:36;;;;;;;8.93;2.60;;;11.50;99.90;;;;;;4844799;29;20040;-83
2021/10/04 04:11:04;;;;;;;5.28;1.90;;;11.50;99.90;;;;;;4860192;29;20436;-84
2021/10/04 04:13:30;;;;;;;9.35;2.45;;;11.50;99.90;;;;;;4861475;29;20109;-84
2021/10/04 04:15:56;;;;;;;10.30;2.65;;;10.80;99.90;;;;;;4860013;29;20045;-83
2021/10/04 04:18:25;;;;;;;8.15;2.92;;;11.80;99.90;;;;;;4860495;29;20065;-83
2021/10/04 04:20:51;;;;;;;5.47;2.47;;;11.50;99.90;;;;;;4863180;29;20045;-83
2021/10/04 04:23:17;;;;;;;9.43;2.50;;;11.50;99.90;;;;;;4850797;29;20045;-83
2021/10/04 04:25:45;;;;;;;11.52;2.33;;;11.50;99.90;;;;;;4861014;29;20614;-84
2021/10/04 04:28:14;;;;;;;8.15;2.38;;;11.50;99.90;;;;;;4844979;29;20041;-84
2021/10/04 04:30:43;;;;;;;5.95;2.00;;;11.50;99.90;;;;;;4844636;29;20087;-84
2021/10/04 04:33:12;;;;;;;5.35;2.17;;;11.80;99.90;;;;;;4860108;29;20120;-84
2021/10/04 04:35:40;;;;;;;8.00;2.85;;;10.80;99.90;;;;;;4863455;29;20113;-83
2021/10/04 04:38:09;;;;;;;7.72;2.50;;;11.50;99.90;;;;;;4869364;29;20286;-83
2021/10/04 04:40:41;;;;;;;9.55;2.65;;;11.50;99.90;;;;;;4859531;29;20124;-83
2021/10/04 04:43:10;;;;;;;6.32;2.35;;;11.50;99.90;;;;;;4857428;29;20057;-84
2021/10/04 04:45:36;;;;;;;5.03;2.05;;;12.10;99.90;;;;;;4844218;29;20053;-83
2021/10/04 04:48:02;;;;;;;9.65;2.83;;;11.40;99.90;;;;;;4859765;29;20041;-84
2021/10/04 04:50:29;;;;;;;9.52;2.67;;;11.40;99.90;;;;;;4859819;29;20136;-84
2021/10/04 04:52:55;;;;;;;6.70;2.15;;;11.30;99.90;;;;;;4872811;29;20060;-83
2021/10/04 04:55:21;;;;;;;11.05;2.50;;;11.40;99.90;;;;;;4866119;29;20498;-83
2021/10/04 04:57:47;;;;;;;8.43;2.30;;;11.40;99.90;;;;;;4862642;29;20061;-83
2021/10/04 05:00:14;;;;;;;7.35;2.50;;;11.40;99.90;;;;;;4865980;29;20541;-83
2021/10/04 05:02:44;;;;;;;7.88;2.60;;;11.40;99.90;;;;;;4851749;29;20065;-90
2021/10/04 05:05:15;;;;;;;11.52;2.50;;;11.50;99.90;;;;;;4872757;29;20132;-91
2021/10/04 05:07:41;;;;;;;10.32;2.03;;;12.00;99.90;;;;;;4869812;29;20045;-91
2021/10/04 05:10:08;;;;;;;6.93;2.40;;;11.40;99.90;;;;;;4865348;29;20422;-91
2021/10/04 05:12:34;;;;;;;7.53;1.83;;;11.40;99.90;;;;;;4871466;29;20041;-91
2021/10/04 05:15:01;;;;;;;6.97;2.17;;;11.40;99.90;;;;;;4853367;29;20129;-90
2021/10/04 05:17:29;;;;;;;11.35;2.28;;;11.50;99.90;;;;;;4849576;29;20109;-91
2021/10/04 05:19:55;;;;;;;8.35;2.55;;;11.40;99.90;;;;;;4843483;29;20502;-83
2021/10/04 05:22:23;;;;;;;8.10;2.20;;;11.40;99.90;;;;;;4871689;29;20049;-83
2021/10/04 05:24:49;;;;;;;4.35;1.90;;;11.50;99.90;;;;;;4844542;29;20125;-84
2021/10/04 05:27:15;;;;;;;7.70;2.38;;;12.20;99.90;;;;;;4859845;29;20132;-91
2021/10/04 05:29:41;;;;;;;8.00;2.40;;;11.60;99.90;;;;;;4859636;29;20491;-91
2021/10/04 05:32:07;;;;;;;10.15;2.38;;;11.10;99.90;;;;;;4859397;29;20077;-91
2021/10/04 05:34:33;;;;;;;6.57;2.28;;;11.90;99.90;;;;;;4851709;29;20076;-92
2021/10/04 05:36:59;;;;;;;7.22;2.28;;;11.50;99.90;;;;;;4834595;29;20483;-92
2021/10/04 05:39:25;;;;;;;8.52;2.47;;;11.50;99.90;;;;;;4846422;29;20566;-91
2021/10/04 05:41:51;;;;;;;9.82;2.10;;;11.60;99.90;;;;;;4862286;29;20846;-92
2021/10/04 05:44:19;;;;;;;6.88;2.35;;;11.50;99.90;;;;;;4846955;29;20057;-92
2021/10/04 05:46:45;;;;;;;9.35;2.63;;;12.30;99.90;;;;;;4844333;29;20060;-91
2021/10/04 05:49:10;;;;;;;7.05;2.10;;;11.50;99.90;;;;;;4862160;29;20037;-91
2021/10/04 05:51:39;;;;;;;8.98;2.60;;;11.50;99.90;;;;;;4850979;29;20036;-91
2021/10/04 05:54:06;;;;;;;10.13;2.20;;;11.50;99.90;;;;;;4825483;29;20045;-92
2021/10/04 05:56:31;;;;;;;11.02;2.35;;;11.50;99.90;;;;;;4831778;29;20051;-91
2021/10/04 05:58:57;;;;;;;6.32;2.25;;;11.50;99.90;;;;;;4855141;29;20044;-91
2021/10/04 06:01:27;;;;;;;5.50;2.22;;;11.90;99.90;;;;;;4866409;29;20509;-90
2021/10/04 06:03:53;;;;;;;8.05;2.20;;;10.90;99.90;;;;;;4862136;29;20045;-91
2021/10/04 06:06:18;;;;;;;13.65;2.65;;;11.50;99.90;;;;;;4862261;29;20051;-91
2021/10/04 06:08:44;;;;;;;6.25;2.30;;;11.50;99.90;;;;;;4846583;29;20056;-91
2021/10/04 06:11:10;;;;;;;7.00;2.28;;;11.50;99.90;;;;;;4831475;29;20097;-83
2021/10/04 06:13:38;;;;;;;12.55;2.80;;;11.50;99.90;;;;;;4831249;29;20068;-83
2021/10/04 06:16:05;;;;;;;7.63;2.03;;;11.50;99.90;;;;;;4862131;29;20056;-84
2021/10/04 06:18:41;;;;;;;7.78;2.13;;;11.30;99.90;;;;;;4846360;29;20136;-84
2021/10/04 06:21:08;;;;;;;6.97;2.15;;;11.60;99.90;;;;;;4846191;29;20132;-84
2021/10/04 06:23:36;;;;;;;6.53;2.20;;;11.60;99.90;;;;;;4845569;29;20041;-84
2021/10/04 06:26:02;;;;;;;5.93;1.92;;;11.60;99.90;;;;;;4878511;29;20494;-91
2021/10/04 06:28:36;;;;;;;5.38;2.25;;;12.00;99.90;;;;;;4891103;29;20041;-83
2021/10/04 06:31:03;;;;;;;14.18;2.63;;;11.70;99.90;;;;;;4885018;29;20041;-91
2021/10/04 06:33:31;;;;;;;6.55;2.38;;;11.80;99.90;;;;;;4852309;29;20049;-83
2021/10/04 06:35:59;;;;;;;8.30;2.35;;;11.60;99.90;;;;;;4891118;29;20033;-83
2021/10/04 06:38:25;;;;;;;7.10;2.40;;;11.60;99.90;;;;;;4873778;29;20060;-84
2021/10/04 06:40:53;;;;;;;7.82;2.00;;;11.60;99.90;;;;;;4864399;29;20207;-88
2021/10/04 06:43:19;;;;;;;8.38;2.38;;;11.60;99.90;;;;;;4855043;29;20519;-90
2021/10/04 06:45:48;;;;;;;9.02;2.70;;;11.60;99.90;;;;;;4856885;29;20036;-84
2021/10/04 06:48:16;;;;;;;8.57;2.60;;;11.70;99.90;;;;;;4864690;29;20055;-83
2021/10/04 06:50:45;;;;;;;6.00;2.00;;;11.60;99.90;;;;;;4846262;29;20079;-83
2021/10/04 06:53:10;;;;;;;9.48;2.40;;;11.60;99.90;;;;;;4879107;29;20045;-83
2021/10/04 06:55:36;;;;;;;8.48;2.08;;;11.70;99.90;;;;;;4881931;29;20037;-83
2021/10/04 06:58:02;;;;;;;7.28;2.20;;;11.70;99.90;;;;;;4847577;29;20132;-83
2021/10/04 07:00:28;;;;;;;6.40;2.05;;;11.80;99.90;;;;;;4865695;29;20364;-84
2021/10/04 07:02:58;;;;;;;5.70;2.10;;;11.70;99.90;;;;;;4864466;29;20131;-82
2021/10/04 07:05:24;;;;;;;9.07;2.28;;;12.10;99.90;;;;;;4865459;29;20045;-83
2021/10/04 07:07:51;;;;;;;6.40;2.28;;;11.70;99.90;;;;;;4875594;29;20404;-83
2021/10/04 07:10:18;;;;;;;6.38;2.15;;;11.70;99.90;;;;;;4851008;29;20052;-83
2021/10/04 07:12:46;;;;;;;7.07;2.00;;;11.70;99.90;;;;;;4864369;29;20132;-83
2021/10/04 07:15:15;;;;;;;12.40;2.42;;;11.80;99.90;;;;;;4880799;29;20391;-84
2021/10/04 07:17:45;;;;;;;5.97;1.80;;;11.80;99.90;;;;;;4864620;29;20049;-84
2021/10/04 07:20:11;;;;;;;5.72;2.13;;;12.30;99.90;;;;;;4864194;29;20084;-83
2021/10/04 07:22:39;;;;;;;7.13;1.90;;;11.50;99.90;;;;;;4833991;29;20466;-83
2021/10/04 07:25:06;;;;;;;10.48;2.45;;;11.80;99.90;;;;;;4864141;29;20045;-83
2021/10/04 07:27:33;;;;;;;9.52;2.50;;;11.90;99.90;;;;;;4851353;29;20123;-84
2021/10/04 07:29:59;;;;;;;7.45;2.22;;;11.90;99.90;;;;;;4864112;29;20044;-84
2021/10/04 07:32:27;;;;;;;5.93;2.13;;;12.00;99.90;;;;;;4852751;29;20049;-84
2021/10/04 07:34:53;;;;;;;5.82;1.75;;;11.80;99.90;;;;;;4842301;29;20144;-90
2021/10/04 07:37:19;;;;;;;6.80;2.22;;;11.90;99.90;;;;;;4848838;29;20053;-90
2021/10/04 07:39:45;;;;;;;8.48;2.13;;;11.90;99.90;;;;;;4880783;29;20040;-91
2021/10/04 07:42:11;;;;;;;7.40;2.00;;;11.80;99.90;;;;;;4863737;29;20498;-90
2021/10/04 07:44:37;;;;;;;6.18;2.40;;;11.90;99.90;;;;;;4833553;29;20049;-90
2021/10/04 07:47:03;;;;;;;4.35;1.95;;;11.90;99.90;;;;;;4863758;29;20398;-90
2021/10/04 07:49:30;;;;;;;9.93;2.45;;;11.90;99.90;;;;;;4848688;29;20394;-90
2021/10/04 07:52:00;;;;;;;7.88;2.08;;;11.90;99.90;;;;;;4847992;29;20124;-89
2021/10/04 07:54:30;;;;;;;7.50;1.73;;;11.90;99.90;;;;;;4848894;29;20112;-91
2021/10/04 07:56:56;;;;;;;5.45;1.90;;;11.90;99.90;;;;;;4880435;29;20041;-91
2021/10/04 07:59:25;;;;;;;9.30;2.10;;;11.90;99.90;;;;;;4848620;29;20048;-91
2021/10/04 08:01:51;;;;;;;8.30;1.90;;;11.90;99.90;;;;;;4848185;29;20037;-91
2021/10/04 08:04:18;;;;;;;7.57;2.33;;;11.90;99.90;;;;;;4848437;29;20060;-90
2021/10/04 08:06:47;;;;;;;8.45;2.15;;;11.90;99.90;;;;;;4863742;29;20045;-90
2021/10/04 08:09:13;;;;;;;11.15;2.50;;;11.90;99.90;;;;;;4875417;29;20040;-90
2021/10/04 08:11:42;;;;;;;5.28;1.85;;;11.70;99.90;;;;;;4867650;29;20051;-90
2021/10/04 08:14:08;;;;;;;7.32;2.08;;;11.90;99.90;;;;;;4864210;29;20127;-90
2021/10/04 08:16:33;;;;;;;8.10;2.40;;;11.90;99.90;;;;;;4847869;29;20514;-90
2021/10/04 08:18:59;;;;;;;12.65;2.95;;;12.70;99.90;;;;;;4853316;29;20036;-91
2021/10/04 08:21:25;;;;;;;9.30;2.42;;;12.00;99.90;;;;;;4871406;29;20068;-91
2021/10/04 08:23:51;;;;;;;5.90;1.85;;;12.90;99.90;;;;;;4830578;29;20041;-90
2021/10/04 08:26:17;;;;;;;8.52;2.60;;;12.60;99.90;;;;;;4847726;29;20059;-91
2021/10/04 08:28:43;;;;;;;8.18;2.35;;;12.00;99.90;;;;;;4861303;29;20043;-91
2021/10/04 08:31:11;;;;;;;8.27;2.03;;;12.00;99.90;;;;;;4863003;29;20509;-91
2021/10/04 08:33:37;;;;;;;12.30;2.67;;;12.60;99.90;;;;;;4847790;29;20517;-90
2021/10/04 08:36:05;;;;;;;7.95;2.15;;;12.30;99.90;;;;;;4868658;29;20041;-91
2021/10/04 08:38:32;;;;;;;8.13;2.42;;;12.00;99.90;;;;;;4870517;29;20510;-91
2021/10/04 08:41:04;;;;;;;7.47;2.42;;;12.00;99.90;;;;;;4848451;29;20037;-90
2021/10/04 08:43:31;;;;;;;8.82;2.17;;;11.90;99.90;;;;;;4854570;29;20048;-91
2021/10/04 08:46:00;;;;;;;7.10;2.58;;;12.10;99.90;;;;;;4865672;29;20044;-90
2021/10/04 08:48:26;;;;;;;10.23;2.83;;;12.10;99.90;;;;;;4835500;29;20188;-90
2021/10/04 08:50:55;;;;;;;11.75;2.30;;;12.20;99.90;;;;;;4847714;29;20060;-89
2021/10/04 08:53:21;;;;;;;11.30;2.38;;;12.20;99.90;;;;;;4862780;29;20056;-91
2021/10/04 08:55:47;;;;;;;7.90;2.03;;;12.20;99.90;;;;;;4847772;29;20092;-84
2021/10/04 08:58:16;;;;;;;8.15;2.10;;;12.30;99.90;;;;;;4862473;29;20101;-83
2021/10/04 09:00:42;;;;;;;12.55;2.60;;;12.30;99.90;;;;;;4879025;29;20045;-83
2021/10/04 09:03:10;;;;;;;7.60;2.20;;;12.40;99.90;;;;;;4861440;29;20124;-83
2021/10/04 09:05:36;;;;;;;8.80;2.42;;;12.40;99.90;;;;;;4847247;29;20041;-83
2021/10/04 09:08:43;;;;;;;7.18;2.20;;;12.40;99.90;;;;;;4860132;29;20049;-83
2021/10/04 09:11:13;;;;;;;9.18;2.55;;;12.50;99.90;;;;;;4871824;29;20037;-83
2021/10/04 09:13:47;;;;;;;6.70;2.17;;;12.50;99.90;;;;;;4847686;29;20037;-83
2021/10/04 09:16:13;;;;;;;8.38;2.30;;;12.30;99.90;;;;;;4879284;29;20051;-83
2021/10/04 09:18:39;;;;;;;7.97;2.38;;;12.70;99.90;;;;;;4847434;29;20124;-83
2021/10/04 09:21:09;;;;;;;8.18;2.40;;;12.70;99.90;;;;;;4879208;29;20091;-83
2021/10/04 09:23:52;;;;;;;7.43;2.45;;;12.70;99.90;;;;;;4863432;29;20128;-83
2021/10/04 09:26:29;;;;;;;7.68;2.20;;;13.20;99.90;;;;;;4862073;29;20076;-83
2021/10/04 09:29:05;;;;;;;3.75;2.15;;;13.10;99.90;;;;;;4861951;29;20514;-83
2021/10/04 09:31:34;;;;;;;9.55;2.30;;;12.90;99.90;;;;;;4856806;29;20048;-83
2021/10/04 09:34:01;;;;;;;10.27;2.53;;;12.90;99.90;;;;;;4867632;29;20052;-83
2021/10/04 09:36:33;;;;;;;11.88;2.53;;;13.00;99.90;;;;;;4872041;29;20072;-83
2021/10/04 09:39:12;;;;;;;8.52;2.40;;;12.80;99.90;;;;;;4862020;29;20045;-84
2021/10/04 09:42:11;;;;;;;7.70;2.65;;;13.10;99.90;;;;;;4862084;29;20051;-83
2021/10/04 09:44:58;;;;;;;9.38;2.10;;;13.10;99.90;;;;;;4862024;29;20057;-83
2021/10/04 09:47:40;;;;;;;5.75;1.95;;;13.10;99.90;;;;;;4862241;29;20097;-83
2021/10/04 09:50:09;;;;;;;8.90;1.90;;;13.20;99.90;;;;;;4852192;29;20130;-83
2021/10/04 09:52:39;;;;;;;8.75;2.28;;;13.20;99.90;;;;;;4868922;29;20048;-83
2021/10/04 09:55:21;;;;;;;11.73;2.60;;;13.30;99.90;;;;;;4846470;29;20104;-83
2021/10/04 09:58:03;;;;;;;10.35;2.08;;;13.40;99.90;;;;;;4878571;29;20056;-83
2021/10/04 10:00:38;;;;;;;6.80;1.83;;;13.60;99.90;;;;;;4878576;29;20045;-83
2021/10/04 10:03:05;;;;;;;8.00;1.95;;;13.60;99.90;;;;;;4862155;29;20084;-83
2021/10/04 10:05:35;;;;;;;9.32;2.28;;;13.50;99.90;;;;;;4846772;29;20095;-83
2021/10/04 10:08:05;;;;;;;6.13;2.20;;;13.10;99.90;;;;;;4846613;29;20041;-83
2021/10/04 10:10:34;;;;;;;11.13;2.40;;;13.60;99.90;;;;;;4875412;29;20044;-83
2021/10/04 10:13:00;;;;;;;8.45;2.58;;;13.60;99.90;;;;;;4873760;29;20044;-83
2021/10/04 10:15:29;;;;;;;9.52;1.83;;;13.60;99.90;;;;;;4820920;29;20052;-83
2021/10/04 10:18:46;;;;;;;7.72;2.20;;;13.70;99.90;;;;;;4863527;29;20049;-90
2021/10/04 10:22:21;;;;;;;10.00;1.75;;;13.80;99.90;;;;;;4812930;29;20042;-90
2021/10/04 10:24:56;;;;;;;8.52;1.70;;;13.80;99.90;;;;;;4805936;29;20103;-81
2021/10/04 10:27:43;;;;;;;10.82;2.05;;;14.10;99.90;;;;;;4839645;29;20037;-79
2021/10/04 11:08:33;;;;;;;;;;;13.90;99.90;;;;;;6179555;22;1315838;-79
2021/10/04 11:12:00;;;;;;;7.72;1.70;;;14.30;99.90;;;;;;6197056;23;19912;-81
2021/10/04 11:19:28;;;;;;;12.05;2.08;;;15.30;99.90;;;;;;6135551;23;20028;-80
2021/10/04 11:22:32;;;;;;;7.50;1.83;;;14.70;99.90;;;;;;6072053;23;20414;-80
2021/10/04 11:36:37;;;;;;;5.60;1.58;;;14.30;99.90;;;;;;5987031;23;20550;-80
2021/10/04 11:40:02;;;;;;;6.75;1.65;;;14.90;99.90;;;;;;6015424;23;20071;-80
2021/10/04 11:46:49;;;;;;;8.05;1.90;;;15.00;99.90;;;;;;5966600;24;20114;-80
2021/10/04 11:49:36;;;;;;;9.00;2.08;;;15.00;99.90;;;;;;5907505;24;20025;-80
2021/10/04 11:52:34;;;;;;;9.43;1.52;;;15.00;99.90;;;;;;6048494;23;20022;-80
2021/10/04 11:55:13;;;;;;;4.65;1.05;;;15.10;99.90;;;;;;6165240;23;20016;-82
2021/10/04 11:57:48;;;;;;;9.45;1.55;;;15.10;99.90;;;;;;6166342;23;20096;-82
2021/10/04 12:00:35;;;;;;;9.60;1.90;;;15.20;99.90;;;;;;6167277;23;20044;-83
2021/10/04 12:03:40;;;;;;;5.47;1.33;;;15.10;99.90;;;;;;6166295;23;20407;-81
2021/10/04 12:06:26;;;;;;;;;;;;;;;;;;;;;
2021/10/04 12:09:31;;;;;;;8.20;1.80;;;15.20;99.90;;;;;;6055274;23;20022;-82
2021/10/04 12:16:03;;;;;;;6.82;1.50;;;15.30;99.90;;;;;;6036459;23;20027;-84
2021/10/04 12:18:50;;;;;;;13.75;1.60;;;15.30;99.90;;;;;;6078427;23;20473;-83
2021/10/04 12:21:27;;;;;;;9.52;1.73;;;15.30;99.90;;;;;;6097384;23;20022;-83
2021/10/04 12:24:33;;;;;;;6.60;1.35;;;15.30;99.90;;;;;;6096670;23;20021;-82
2021/10/04 12:27:09;;;;;;;11.43;2.00;;;15.40;99.90;;;;;;6096683;23;20025;-82
2021/10/04 12:29:58;;;;;;;6.20;1.30;;;15.40;99.90;;;;;;6120827;23;20029;-81
2021/10/04 12:32:49;;;;;;;4.60;1.13;;;15.80;99.90;;;;;;6096532;23;20104;-81
2021/10/04 12:35:24;;;;;;;7.20;1.42;;;15.50;99.90;;;;;;6096216;23;20020;-82
2021/10/04 12:37:53;;;;;;;9.68;1.48;;;15.40;99.90;;;;;;6121557;23;20014;-82
2021/10/04 12:40:26;;;;;;;6.93;1.40;;;15.50;99.90;;;;;;6097040;23;20050;-82
2021/10/04 12:42:57;;;;;;;9.43;1.27;;;15.80;99.90;;;;;;6110988;23;20125;-81
2021/10/04 12:45:23;;;;;;;9.35;1.42;;;15.60;99.90;;;;;;6181890;23;20448;-82
2021/10/04 12:47:59;;;;;;;9.88;1.40;;;15.60;99.90;;;;;;6181327;23;20020;-82
2021/10/04 12:50:27;;;;;;;4.10;1.20;;;15.60;99.90;;;;;;6181793;23;20048;-81
2021/10/04 12:53:09;;;;;;;7.13;1.58;;;16.30;99.90;;;;;;6183036;23;20023;-82
2021/10/04 12:55:51;;;;;;;5.72;1.10;;;15.60;99.90;;;;;;6181908;23;20021;-78
2021/10/04 12:58:17;;;;;;;8.73;1.38;;;15.70;99.90;;;;;;6181383;23;20017;-78
2021/10/04 13:00:43;;;;;;;11.30;1.23;;;16.40;99.90;;;;;;6182284;23;20079;-80
2021/10/04 13:03:09;;;;;;;6.55;1.52;;;15.70;99.90;;;;;;6182578;23;20083;-78
2021/10/04 13:05:35;;;;;;;6.07;1.40;;;15.80;99.90;;;;;;6157007;23;20056;-78
2021/10/04 13:08:01;;;;;;;9.43;1.42;;;15.70;99.90;;;;;;6212189;23;20021;-78
2021/10/04 13:10:26;;;;;;;5.15;1.00;;;15.70;99.90;;;;;;6163598;23;20099;-78
2021/10/04 13:12:57;;;;;;;7.03;1.38;;;15.70;99.90;;;;;;6189041;23;20320;-78
2021/10/04 13:15:24;;;;;;;7.30;1.45;;;15.80;99.90;;;;;;6214249;23;20425;-78
2021/10/04 13:17:50;;;;;;;11.05;1.52;;;15.80;99.90;;;;;;6163777;23;20092;-78
2021/10/04 13:20:16;;;;;;;5.47;1.08;;;15.80;99.90;;;;;;6215078;23;20102;-78
2021/10/04 13:22:41;;;;;;;5.70;1.00;;;15.80;99.90;;;;;;6189034;23;20427;-78
2021/10/04 13:25:10;;;;;;;7.63;1.45;;;15.80;99.90;;;;;;6164113;23;20016;-78
2021/10/04 13:27:38;;;;;;;6.00;1.30;;;15.80;99.90;;;;;;6214248;23;20020;-78
2021/10/04 13:30:06;;;;;;;4.10;1.15;;;16.10;99.90;;;;;;6215571;23;20454;-78
2021/10/04 13:32:32;;;;;;;9.40;1.20;;;15.80;99.90;;;;;;6187826;23;20017;-82
2021/10/04 13:34:58;;;;;;;7.07;1.17;;;15.80;99.90;;;;;;6163318;23;20450;-80
2021/10/04 13:37:24;;;;;;;7.53;1.27;;;15.80;99.90;;;;;;6209814;23;20017;-77
2021/10/04 13:39:49;;;;;;;4.03;1.35;;;15.80;99.90;;;;;;6212607;23;20052;-86
2021/10/04 13:42:15;;;;;;;10.15;1.40;;;15.90;99.90;;;;;;6186591;23;20052;-84
2021/10/04 13:44:41;;;;;;;6.50;1.30;;;15.80;99.90;;;;;;6212401;23;20019;-84
2021/10/04 13:47:07;;;;;;;7.53;1.50;;;15.90;99.90;;;;;;6186093;23;20019;-84
2021/10/04 13:49:36;;;;;;;5.45;1.10;;;15.90;99.90;;;;;;6138436;23;20438;-85
2021/10/04 13:52:02;;;;;;;5.40;1.27;;;16.20;99.90;;;;;;6185966;23;20021;-84
2021/10/04 13:54:28;;;;;;;10.75;1.40;;;15.90;99.90;;;;;;6187767;23;20012;-86
2021/10/04 13:56:54;;;;;;;5.15;1.40;;;15.40;99.90;;;;;;6162597;23;20142;-85
2021/10/04 13:59:20;;;;;;;4.43;1.38;;;15.80;99.90;;;;;;6186734;23;20012;-87
2021/10/04 14:01:46;;;;;;;13.00;2.75;;;15.90;99.90;;;;;;6215124;23;20027;-87
2021/10/04 14:04:12;;;;;;;8.30;1.55;;;15.90;99.90;;;;;;6163300;23;20040;-87